Terminal Aerodrome Forecast
Issued by NWS San Angelo, TX

Home | Current Version | Previous Version | Text Only | Print | Product List | Glossary On
Versions: 1 2 3 4 5 6 7 8 9 10 11 12 13 14 15
306
FTUS44 KSJT 282320
TAFSJT
TAF
KSJT 282320Z 2900/2924 VRB03KT P6SM SCT150
     FM291000 03010KT P6SM SCT250=

USA.gov is the U.S. government's official web portal to all federal, state and local government web resources and services.